KEEN/EEN METAR and TAF weather

Enter ICAO airport designator
Station Type Date Time Source
KEEN METAR 2020/03/28 19:56 UTC NOAA

KEEN 281956Z AUTO VRB03KT 9SM BKN100 11/M06 A3012 RMK AO2 SLP209 T01111061 $


Station Type Date Time Source
KEEN Decoded METAR 2020/03/28 19:56 UTC NOAA

Keene, Dillant-Hopkins Airport, NH, United States (KEEN) 42-54N 072-16W
Mar 28, 2020 - 03:56 PM EDT / 2020.03.28 1956 UTC
Wind: Variable at 3 MPH (3 KT):0
Visibility: 9 mile(s):0
Sky conditions: mostly cloudy
Temperature: 52.0 F (11.1 C)
Dew Point: 21.0 F (-6.1 C)
Relative Humidity: 29%
Pressure (altimeter): 30.12 in. Hg (1019 hPa)
ob: KEEN 281956Z AUTO VRB03KT 9SM BKN100 11/M06 A3012 RMK AO2 SLP209 T01111061
cycle: 20

Station Type Date Time Source
KEEN TAF UTC NOAA

Error!

Example: see airport list